Hayden, IN

09:46 PM EDT ar Medi 18, 2014 (GMT -0400)
Reddington | Change Station
CLOSE
Current Station
Personal Weather Stations
Location: Seymour, IN
Elevation: 630 ft
Nearby Weather Stations

Elev 630 ft 39.03 °N, 85.84 °W | Updated 14 minutes ago

Clir
Clir
60.1 °F
Feels Like 60.1 °F
N
0.0
Gwynt Cyfnewidiol Gwynt from DwGDw
Gusts 1.0 mph

Heddiw
High -- | Low -- °F
--% Chance of Precip.
Yesterday
High -- | Low -- °F
Precip. -- mod
7:27 AM 7:46 PM
Waning Crescent, 23% visible
Gwasgedd 30.08 mod
Gwelededd 10.0 Milltiroedd
Clouds Clir
Gwlithbwynt 53 °F
Lleithder 76%
Rainfall 0.00 mod
Snow Depth Not available.
UV 0 out of 12
Pollen 6.20 out of 12
Ozone Good
PM2.5 Moderate
Flu Activity Not available.
METAR KBAK 190045Z 00000KT 10SM SKC 14/10 A3008

More Conditions Fewer Conditions

Gwasgedd 30.08 mod
Gwelededd 10.0 Milltiroedd
Clouds Clir
Gwlithbwynt 53 °F
Lleithder 76%
Rainfall 0.00 mod
Snow Depth Not available.
UV 0 out of 12
Pollen 6.20 out of 12
Ozone Good
PM2.5 Moderate
Flu Activity Not available.
METAR KBAK 190045Z 00000KT 10SM SKC 14/10 A3008

More Conditions Fewer Conditions

10-Day Weather Forecast

Almanac

Astronomy

Sep. 18, 2014 Rise Set
Actual Time 7:27 AM EDT 7:46 PM EDT
Civil Twilight 7:00 AM EDT 8:13 PM EDT
Nautical Twilight 6:28 AM EDT 8:44 PM EDT
Astronomical Twilight 5:56 AM EDT 9:16 PM EDT
Moon 2:20 AM EDT (9/18) 4:35 PM EDT (9/18)
Length Of Visible Light 13h 12m
Length of Day
12h 19m
Tomorrow will be 2m 31s shorter.
Waning Crescent, 23% of the Moon is Illuminated
Heddiw
Waning Crescent
Sep 24
New
Oct 1
First Quarter
Oct 8
Full
Oct 15
Last Quarter

Today's Extremes

State Highs State Lows

Community

WunderPhotos

Upload Photos

1,754,529 photos uploaded!

Nearby

Air Quality

  Air Quality AQ Index Pollutant
Yesterday Good
PM10
Yesterday Good
OZONE
Current Moderate
PM2.5
Current Good
OZONE
Dydd Iau Moderate
PM2.5
Dydd Iau Good
OZONE
Dydd Gwener Moderate
PM2.5
Dydd Gwener Moderate
OZONE
Dydd Sadwrn Moderate
PM2.5
Dydd Sadwrn Good
OZONE
Dydd Sul Good
PM2.5
Dydd Sul Good
OZONE
Dydd Llun Good
PM2.5
Dydd Llun Good
OZONE

Snow Depth

Station Depth Elevation
No new snow has been reported.

Earthquake Activity

City Distance Mag. Time & Date
No recent earthquake activity has been reported nearby.
Minimum magnitude displayed is 2.5.

Coastal Water Temperatures

Lle Tymheredd
No Stations Reporting

Nearby Weather Stations